^^
Saratoga-Weather Station Historical Data
Daily Summary for September 12, 2021 Units:  Metric    English   Both
Daily Weekly Monthly Yearly Custom
  High: Low: Average:
Temperature: 23.2 °C 11.2 °C 16.3 °C
Dew Point: 15.5 °C 10.5 °C 12.8 °C
Humidity: 97% 55% 81%
Wind Speed: 13km/h 0km/h 1.2km/h
Wind Gust: 14.5km/h - -
Wind- - WSW
Pressure: 1018.6 hPa 1015.9 hPa -
Precipitation: 0.0 mm    
Historical Graphs
 
 
Tabular Data for September 12, 2021
Time Temperature Dew Point Pressure Wind Wind Speed Wind Gust Humidity Rainfall Rate (Hourly) solar
00:03 12.9 °C 11.6 °C 1018.3 hPa Calm     92% 0.0 mm 0 W/m2
00:08 12.9 °C 11.6 °C 1018.3 hPa Calm     92% 0.0 mm 0 W/m2
00:13 12.9 °C 11.8 °C 1018.3 hPa Calm     93% 0.0 mm 0 W/m2
00:18 12.9 °C 11.8 °C 1018.3 hPa Calm     93% 0.0 mm 0 W/m2
00:23 12.8 °C 11.7 °C 1018.3 hPa Calm     93% 0.0 mm 0 W/m2
00:28 12.8 °C 11.7 °C 1018.3 hPa Calm     93% 0.0 mm 0 W/m2
00:33 12.8 °C 11.7 °C 1018.0 hPa Calm     93% 0.0 mm 0 W/m2
00:38 12.8 °C 11.7 °C 1018.0 hPa Calm     93% 0.0 mm 0 W/m2
00:43 12.7 °C 11.6 °C 1018.3 hPa Calm     93% 0.0 mm 0 W/m2
00:48 12.7 °C 11.6 °C 1018.3 hPa Calm     93% 0.0 mm 0 W/m2
00:53 12.7 °C 11.8 °C 1018.3 hPa Calm   1.6 km/h 94% 0.0 mm 0 W/m2
00:58 12.7 °C 11.8 °C 1018.3 hPa Calm     94% 0.0 mm 0 W/m2
01:03 12.7 °C 11.8 °C 1018.3 hPa Calm     94% 0.0 mm 0 W/m2
01:08 12.7 °C 11.8 °C 1018.3 hPa Calm     94% 0.0 mm 0 W/m2
01:13 12.6 °C 11.7 °C 1018.0 hPa Calm     94% 0.0 mm 0 W/m2
01:18 12.6 °C 11.5 °C 1018.3 hPa Calm     93% 0.0 mm 0 W/m2
01:23 12.4 °C 11.5 °C 1018.3 hPa Calm     94% 0.0 mm 0 W/m2
01:28 12.4 °C 11.5 °C 1018.3 hPa Calm     94% 0.0 mm 0 W/m2
01:33 12.3 °C 11.4 °C 1018.3 hPa Calm     94% 0.0 mm 0 W/m2
01:38 12.3 °C 11.4 °C 1018.0 hPa Calm     94% 0.0 mm 0 W/m2
01:43 12.2 °C 11.3 °C 1018.0 hPa Calm     94% 0.0 mm 0 W/m2
01:48 12.2 °C 11.3 °C 1018.0 hPa Calm     94% 0.0 mm 0 W/m2
01:53 12.2 °C 11.3 °C 1018.0 hPa Calm     94% 0.0 mm 0 W/m2
01:58 12.1 °C 11.2 °C 1018.0 hPa Calm     94% 0.0 mm 0 W/m2
02:03 12.1 °C 11.2 °C 1018.0 hPa Calm     94% 0.0 mm 0 W/m2
02:08 12 °C 11.1 °C 1018.0 hPa Calm     94% 0.0 mm 0 W/m2
02:13 11.9 °C 11 °C 1018.0 hPa Calm     94% 0.0 mm 0 W/m2
02:18 11.9 °C 11 °C 1018.0 hPa Calm     94% 0.0 mm 0 W/m2
02:23 11.8 °C 10.9 °C 1018.0 hPa Calm     94% 0.0 mm 0 W/m2
02:28 11.9 °C 11.1 °C 1018.0 hPa Calm     95% 0.0 mm 0 W/m2
02:33 11.9 °C 11.1 °C 1018.0 hPa Calm     95% 0.0 mm 0 W/m2
02:38 11.9 °C 11.1 °C 1018.0 hPa Calm     95% 0.0 mm 0 W/m2
02:43 11.9 °C 11.1 °C 1018.0 hPa Calm     95% 0.0 mm 0 W/m2
02:48 11.9 °C 11.1 °C 1018.0 hPa Calm     95% 0.0 mm 0 W/m2
02:53 11.9 °C 11.1 °C 1018.0 hPa Calm     95% 0.0 mm 0 W/m2
02:58 11.8 °C 11 °C 1018.0 hPa Calm     95% 0.0 mm 0 W/m2
03:03 11.8 °C 11 °C 1018.0 hPa Calm     95% 0.0 mm 0 W/m2
03:08 11.7 °C 10.9 °C 1018.0 hPa Calm     95% 0.0 mm 0 W/m2
03:13 11.7 °C 10.9 °C 1018.0 hPa Calm     95% 0.0 mm 0 W/m2
03:18 11.7 °C 10.9 °C 1018.0 hPa Calm   3.2 km/h 95% 0.0 mm 0 W/m2
03:23 11.8 °C 11 °C 1018.0 hPa West 1.4 km/h 3.2 km/h 95% 0.0 mm 0 W/m2
03:28 11.8 °C 11 °C 1018.0 hPa Calm     95% 0.0 mm 0 W/m2
03:33 11.8 °C 11 °C 1018.0 hPa West 1.4 km/h 3.2 km/h 95% 0.0 mm 0 W/m2
03:38 11.8 °C 11 °C 1018.0 hPa Calm     95% 0.0 mm 0 W/m2
03:43 11.8 °C 11 °C 1018.0 hPa Calm     95% 0.0 mm 0 W/m2
03:48 11.7 °C 10.9 °C 1018.0 hPa Calm     95% 0.0 mm 0 W/m2
03:53 11.7 °C 10.9 °C 1018.0 hPa Calm     95% 0.0 mm 0 W/m2
03:58 11.7 °C 10.9 °C 1018.0 hPa Calm     95% 0.0 mm 0 W/m2
04:03 11.7 °C 10.9 °C 1018.0 hPa Calm     95% 0.0 mm 0 W/m2
04:08 11.6 °C 10.8 °C 1018.0 hPa Calm     95% 0.0 mm 0 W/m2
04:13 11.5 °C 10.7 °C 1018.0 hPa Calm     95% 0.0 mm 0 W/m2
04:18 11.4 °C 10.6 °C 1018.0 hPa Calm     95% 0.0 mm 0 W/m2
04:23 11.4 °C 10.6 °C 1018.0 hPa Calm     95% 0.0 mm 0 W/m2
04:28 11.3 °C 10.5 °C 1018.0 hPa Calm     95% 0.0 mm 0 W/m2
04:33 11.3 °C 10.5 °C 1018.0 hPa Calm     95% 0.0 mm 0 W/m2
04:38 11.3 °C 10.5 °C 1018.0 hPa Calm     95% 0.0 mm 0 W/m2
04:43 11.3 °C 10.7 °C 1017.6 hPa Calm     96% 0.0 mm 0 W/m2
04:48 11.3 °C 10.7 °C 1017.6 hPa Calm     96% 0.0 mm 0 W/m2
04:53 11.3 °C 10.7 °C 1018.0 hPa Calm     96% 0.0 mm 0 W/m2
04:58 11.3 °C 10.7 °C 1018.0 hPa Calm   1.6 km/h 96% 0.0 mm 0 W/m2
05:03 11.4 °C 10.8 °C 1018.0 hPa Calm     96% 0.0 mm 0 W/m2
05:08 11.3 °C 10.7 °C 1018.0 hPa Calm     96% 0.0 mm 0 W/m2
05:13 11.3 °C 10.7 °C 1018.0 hPa Calm     96% 0.0 mm 0 W/m2
05:18 11.3 °C 10.7 °C 1018.0 hPa Calm     96% 0.0 mm 0 W/m2
05:23 11.2 °C 10.6 °C 1017.6 hPa Calm     96% 0.0 mm 0 W/m2
05:28 11.2 °C 10.6 °C 1017.6 hPa Calm     96% 0.0 mm 0 W/m2
05:33 11.2 °C 10.6 °C 1017.6 hPa Calm     96% 0.0 mm 0 W/m2
05:38 11.2 °C 10.6 °C 1017.6 hPa Calm     96% 0.0 mm 0 W/m2
05:43 11.2 °C 10.6 °C 1018.0 hPa Calm     96% 0.0 mm 0 W/m2
05:48 11.2 °C 10.6 °C 1017.6 hPa Calm     96% 0.0 mm 0 W/m2
05:53 11.2 °C 10.6 °C 1017.6 hPa Calm     96% 0.0 mm 0 W/m2
05:58 11.2 °C 10.6 °C 1018.0 hPa Calm     96% 0.0 mm 0 W/m2
06:03 11.2 °C 10.6 °C 1017.6 hPa Calm     96% 0.0 mm 0 W/m2
06:08 11.3 °C 10.7 °C 1018.0 hPa Calm     96% 0.0 mm 0 W/m2
06:13 11.3 °C 10.7 °C 1017.6 hPa Calm     96% 0.0 mm 0 W/m2
06:18 11.4 °C 10.8 °C 1017.6 hPa Calm     96% 0.0 mm 0 W/m2
06:24 11.4 °C 10.8 °C 1017.6 hPa Calm     96% 0.0 mm 0 W/m2
06:29 11.6 °C 11 °C 1018.0 hPa Calm     96% 0.0 mm 0 W/m2
06:34 11.7 °C 11.1 °C 1018.0 hPa Calm     96% 0.0 mm 0 W/m2
06:39 11.8 °C 11.3 °C 1018.0 hPa Calm     97% 0.0 mm 0 W/m2
06:44 11.8 °C 11.2 °C 1018.0 hPa Calm     96% 0.0 mm 0 W/m2
06:49 11.8 °C 11.2 °C 1018.0 hPa Calm     96% 0.0 mm 0 W/m2
06:54 11.8 °C 11.2 °C 1017.6 hPa Calm     96% 0.0 mm 0 W/m2
06:59 11.8 °C 11.2 °C 1018.0 hPa Calm     96% 0.0 mm 0 W/m2
07:04 11.9 °C 11.3 °C 1018.0 hPa Calm     96% 0.0 mm 0 W/m2
07:09 11.9 °C 11.3 °C 1018.0 hPa Calm     96% 0.0 mm 0 W/m2
07:14 11.9 °C 11.3 °C 1018.0 hPa Calm     96% 0.0 mm 5 W/m2
07:19 11.9 °C 11.3 °C 1018.0 hPa Calm     96% 0.0 mm 7 W/m2
07:24 12 °C 11.4 °C 1018.0 hPa Calm   1.6 km/h 96% 0.0 mm 11 W/m2
07:29 12.1 °C 11.6 °C 1018.0 hPa Calm     97% 0.0 mm 12 W/m2
07:34 12.1 °C 11.5 °C 1018.0 hPa Calm     96% 0.0 mm 16 W/m2
07:39 12.1 °C 11.5 °C 1018.0 hPa Calm     96% 0.0 mm 19 W/m2
07:44 12.1 °C 11.5 °C 1018.0 hPa Calm     96% 0.0 mm 21 W/m2
07:49 12.2 °C 11.6 °C 1018.0 hPa Calm   1.6 km/h 96% 0.0 mm 26 W/m2
07:54 12.2 °C 11.6 °C 1018.0 hPa Calm     96% 0.0 mm 30 W/m2
07:59 12.2 °C 11.6 °C 1018.0 hPa Calm     96% 0.0 mm 35 W/m2
08:04 12.2 °C 11.6 °C 1018.0 hPa Calm     96% 0.0 mm 40 W/m2
08:09 12.3 °C 11.7 °C 1018.0 hPa Calm     96% 0.0 mm 47 W/m2
08:14 12.3 °C 11.7 °C 1018.0 hPa Calm     96% 0.0 mm 32 W/m2
08:19 12.4 °C 11.9 °C 1018.0 hPa Calm     97% 0.0 mm 53 W/m2
08:24 12.4 °C 11.9 °C 1018.0 hPa Calm     97% 0.0 mm 60 W/m2
08:29 12.5 °C 12 °C 1018.3 hPa Calm     97% 0.0 mm 72 W/m2
08:34 12.6 °C 12 °C 1018.0 hPa Calm     96% 0.0 mm 74 W/m2
08:39 12.7 °C 12.1 °C 1018.0 hPa Calm     96% 0.0 mm 81 W/m2
08:44 12.7 °C 12.2 °C 1018.3 hPa Calm     97% 0.0 mm 90 W/m2
08:49 12.8 °C 12.2 °C 1018.0 hPa Calm     96% 0.0 mm 91 W/m2
08:54 12.9 °C 12.3 °C 1018.0 hPa Calm   1.6 km/h 96% 0.0 mm 104 W/m2
08:59 13 °C 12.4 °C 1018.3 hPa Calm     96% 0.0 mm 107 W/m2
09:04 13.2 °C 12.6 °C 1018.3 hPa Calm   1.6 km/h 96% 0.0 mm 113 W/m2
09:09 13.3 °C 12.7 °C 1018.3 hPa Calm     96% 0.0 mm 118 W/m2
09:14 13.4 °C 12.8 °C 1018.3 hPa NW 3.2 km/h 3.2 km/h 96% 0.0 mm 120 W/m2
09:19 13.5 °C 12.7 °C 1018.3 hPa Calm     95% 0.0 mm 120 W/m2
09:24 13.6 °C 12.8 °C 1018.3 hPa NW 3.2 km/h 3.2 km/h 95% 0.0 mm 123 W/m2
09:29 13.7 °C 12.9 °C 1018.3 hPa Calm     95% 0.0 mm 130 W/m2
09:34 13.9 °C 13.1 °C 1018.3 hPa Calm     95% 0.0 mm 141 W/m2
09:39 14.1 °C 13.1 °C 1018.3 hPa Calm     94% 0.0 mm 146 W/m2
09:44 14.3 °C 13.3 °C 1018.3 hPa Calm     94% 0.0 mm 149 W/m2
09:50 14.4 °C 13.3 °C 1018.3 hPa Calm     93% 0.0 mm 160 W/m2
09:55 14.6 °C 13.3 °C 1018.3 hPa Calm   3.2 km/h 92% 0.0 mm 178 W/m2
10:00 14.7 °C 13.4 °C 1018.3 hPa Calm   1.6 km/h 92% 0.0 mm 178 W/m2
10:05 14.9 °C 13.4 °C 1018.3 hPa Calm   3.2 km/h 91% 0.0 mm 183 W/m2
10:10 15.1 °C 13.6 °C 1018.3 hPa Calm     91% 0.0 mm 181 W/m2
10:15 15.2 °C 13.6 °C 1018.6 hPa Calm   3.2 km/h 90% 0.0 mm 186 W/m2
10:20 15.4 °C 13.8 °C 1018.3 hPa Calm   1.6 km/h 90% 0.0 mm 192 W/m2
10:25 15.5 °C 13.7 °C 1018.3 hPa Calm     89% 0.0 mm 199 W/m2
10:30 15.7 °C 13.9 °C 1018.3 hPa Calm     89% 0.0 mm 207 W/m2
10:35 15.8 °C 14 °C 1018.6 hPa Calm     89% 0.0 mm 262 W/m2
10:40 16 °C 14 °C 1018.6 hPa Calm     88% 0.0 mm 239 W/m2
10:45 16.2 °C 14.2 °C 1018.6 hPa Calm     88% 0.0 mm 202 W/m2
10:50 16.4 °C 14.4 °C 1018.6 hPa Calm   1.6 km/h 88% 0.0 mm 297 W/m2
10:55 16.6 °C 14.4 °C 1018.6 hPa Calm     87% 0.0 mm 338 W/m2
11:00 16.8 °C 14.6 °C 1018.6 hPa Calm     87% 0.0 mm 390 W/m2
11:05 17.2 °C 14.8 °C 1018.6 hPa ENE 1.4 km/h 3.2 km/h 86% 0.0 mm 325 W/m2
11:10 17.5 °C 14.9 °C 1018.6 hPa ENE 1.4 km/h 1.6 km/h 85% 0.0 mm 642 W/m2
11:15 17.8 °C 14.9 °C 1018.6 hPa ENE 1.4 km/h 4.8 km/h 83% 0.0 mm 417 W/m2
11:20 17.9 °C 14.6 °C 1018.6 hPa ESE 3.2 km/h 4.8 km/h 81% 0.0 mm 577 W/m2
11:25 18.1 °C 14.6 °C 1018.3 hPa Calm   3.2 km/h 80% 0.0 mm 591 W/m2
11:30 18.3 °C 14.8 °C 1018.3 hPa ESE 1.4 km/h 4.8 km/h 80% 0.0 mm 552 W/m2
11:35 18.6 °C 14.7 °C 1018.3 hPa ENE 3.2 km/h 6.4 km/h 78% 0.0 mm 584 W/m2
11:40 18.8 °C 14.7 °C 1018.3 hPa SE 3.2 km/h 3.2 km/h 77% 0.0 mm 606 W/m2
11:45 19.2 °C 14.7 °C 1018.3 hPa Calm   6.4 km/h 75% 0.0 mm 606 W/m2
11:50 19.5 °C 14.5 °C 1018.3 hPa SE 3.2 km/h 3.2 km/h 73% 0.0 mm 622 W/m2
11:55 19.9 °C 14.9 °C 1018.0 hPa NE 3.2 km/h 4.8 km/h 73% 0.0 mm 629 W/m2
12:00 20.2 °C 15 °C 1018.0 hPa Calm   4.8 km/h 72% 0.0 mm 635 W/m2
12:05 20.6 °C 14.9 °C 1018.0 hPa Calm   1.6 km/h 70% 0.0 mm 649 W/m2
12:10 20.9 °C 15 °C 1018.0 hPa ENE 1.4 km/h 3.2 km/h 69% 0.0 mm 661 W/m2
12:15 21.1 °C 14.7 °C 1018.0 hPa Calm   3.2 km/h 67% 0.0 mm 675 W/m2
12:20 21.3 °C 14.7 °C 1018.0 hPa NE 1.4 km/h 6.4 km/h 66% 0.0 mm 707 W/m2
12:25 21.4 °C 14.8 °C 1018.0 hPa ESE 1.4 km/h 4.8 km/h 66% 0.0 mm 735 W/m2
12:30 21.3 °C 14.7 °C 1018.0 hPa NNW 3.2 km/h 4.8 km/h 66% 0.0 mm 719 W/m2
12:35 21.4 °C 15 °C 1018.0 hPa NW 1.4 km/h 6.4 km/h 67% 0.0 mm 747 W/m2
12:40 21.7 °C 14.8 °C 1018.0 hPa NW 1.4 km/h 6.4 km/h 65% 0.0 mm 814 W/m2
12:45 21.7 °C 14.8 °C 1018.0 hPa West 6.4 km/h 6.4 km/h 65% 0.0 mm 795 W/m2
12:50 21.6 °C 15 °C 1018.0 hPa NW 1.4 km/h 1.6 km/h 66% 0.0 mm 759 W/m2
12:55 21.7 °C 14.1 °C 1017.6 hPa SW 7.9 km/h 9.7 km/h 62% 0.0 mm 729 W/m2
13:00 21.6 °C 13.5 °C 1017.6 hPa West 6.4 km/h 11.3 km/h 60% 0.0 mm 729 W/m2
13:05 21.6 °C 13 °C 1017.6 hPa NW 4.7 km/h 12.9 km/h 58% 0.0 mm 749 W/m2
13:10 21.7 °C 13.1 °C 1017.6 hPa WNW 4.7 km/h 9.7 km/h 58% 0.0 mm 777 W/m2
13:15 21.9 °C 13.3 °C 1017.6 hPa WNW 3.2 km/h 12.9 km/h 58% 0.0 mm 819 W/m2
13:20 22.1 °C 13.4 °C 1017.6 hPa West 11.1 km/h 11.3 km/h 58% 0.0 mm 868 W/m2
13:25 22.2 °C 13 °C 1017.6 hPa NW 3.2 km/h 12.9 km/h 56% 0.0 mm 886 W/m2
13:30 22.2 °C 13 °C 1017.3 hPa WNW 6.4 km/h 11.3 km/h 56% 0.0 mm 875 W/m2
13:35 22.3 °C 13.4 °C 1017.3 hPa WNW 7.9 km/h 12.9 km/h 57% 0.0 mm 874 W/m2
13:40 22.1 °C 13.4 °C 1017.3 hPa North 3.2 km/h 8 km/h 58% 0.0 mm 807 W/m2
13:45 22.1 °C 13.2 °C 1017.3 hPa WSW 4.7 km/h 12.9 km/h 57% 0.0 mm 218 W/m2
13:50 21.8 °C 12.9 °C 1017.3 hPa NW 3.2 km/h 8 km/h 57% 0.0 mm 199 W/m2
13:55 21.8 °C 13.4 °C 1017.3 hPa West 3.2 km/h 4.8 km/h 59% 0.0 mm 751 W/m2
14:01 22 °C 13.6 °C 1017.3 hPa West 13 km/h 12.9 km/h 59% 0.0 mm 742 W/m2
14:06 22.1 °C 12.9 °C 1017.3 hPa WNW 4.7 km/h 6.4 km/h 56% 0.0 mm 752 W/m2
14:11 22.2 °C 13 °C 1017.3 hPa SW 3.2 km/h 8 km/h 56% 0.0 mm 768 W/m2
14:16 22.3 °C 13.1 °C 1017.3 hPa NW 4.7 km/h 4.8 km/h 56% 0.0 mm 793 W/m2
14:21 22.6 °C 13.9 °C 1016.9 hPa Calm     58% 0.0 mm 742 W/m2
14:26 22.7 °C 14 °C 1016.9 hPa SSW 1.4 km/h 4.8 km/h 58% 0.0 mm 193 W/m2
14:31 22.5 °C 13.3 °C 1016.9 hPa WNW 3.2 km/h 9.7 km/h 56% 0.0 mm 772 W/m2
14:36 22.5 °C 13.3 °C 1016.9 hPa West 1.4 km/h 9.7 km/h 56% 0.0 mm 738 W/m2
14:41 22.6 °C 13.6 °C 1016.9 hPa WNW 1.4 km/h 4.8 km/h 57% 0.0 mm 738 W/m2
14:46 22.7 °C 13.2 °C 1016.9 hPa West 3.2 km/h 6.4 km/h 55% 0.0 mm 765 W/m2
14:51 22.7 °C 13.2 °C 1016.9 hPa WNW 3.2 km/h 4.8 km/h 55% 0.0 mm 823 W/m2
14:56 22.9 °C 13.9 °C 1016.9 hPa West 3.2 km/h 4.8 km/h 57% 0.0 mm 817 W/m2
15:01 23.2 °C 13.7 °C 1016.9 hPa Calm   6.4 km/h 55% 0.0 mm 823 W/m2
15:06 23 °C 13.5 °C 1016.9 hPa WNW 3.2 km/h 14.5 km/h 55% 0.0 mm 207 W/m2
15:11 22.6 °C 13.4 °C 1016.6 hPa West 6.4 km/h 8 km/h 56% 0.0 mm 185 W/m2
15:16 22.3 °C 13.4 °C 1016.6 hPa NW 4.7 km/h 8 km/h 57% 0.0 mm 153 W/m2
15:21 22.1 °C 13.7 °C 1016.6 hPa WSW 1.4 km/h 3.2 km/h 59% 0.0 mm 255 W/m2
15:26 22.1 °C 13.4 °C 1016.6 hPa NNW 3.2 km/h 6.4 km/h 58% 0.0 mm 163 W/m2
15:31 22.3 °C 13.6 °C 1016.6 hPa West 3.2 km/h 6.4 km/h 58% 0.0 mm 195 W/m2
15:36 22.1 °C 13.2 °C 1016.6 hPa WSW 3.2 km/h 6.4 km/h 57% 0.0 mm 193 W/m2
15:41 21.9 °C 14 °C 1016.6 hPa Calm   4.8 km/h 61% 0.0 mm 204 W/m2
15:46 21.8 °C 13.7 °C 1016.6 hPa WNW 6.4 km/h 6.4 km/h 60% 0.0 mm 174 W/m2
15:51 21.7 °C 13.6 °C 1016.6 hPa WNW 3.2 km/h 6.4 km/h 60% 0.0 mm 148 W/m2
15:56 21.7 °C 13.6 °C 1016.6 hPa WSW 1.4 km/h 4.8 km/h 60% 0.0 mm 176 W/m2
16:01 22 °C 13.6 °C 1016.6 hPa NW 3.2 km/h 9.7 km/h 59% 0.0 mm 211 W/m2
16:06 22.1 °C 13.7 °C 1016.6 hPa Calm   6.4 km/h 59% 0.0 mm 151 W/m2
16:11 21.9 °C 13.8 °C 1016.6 hPa West 9.7 km/h 11.3 km/h 60% 0.0 mm 135 W/m2
16:16 21.7 °C 14.1 °C 1016.6 hPa West 3.2 km/h 6.4 km/h 62% 0.0 mm 171 W/m2
16:21 21.6 °C 14.3 °C 1016.6 hPa West 3.2 km/h 11.3 km/h 63% 0.0 mm 188 W/m2
16:26 21.6 °C 14.5 °C 1016.3 hPa WSW 1.4 km/h 4.8 km/h 64% 0.0 mm 163 W/m2
16:31 21.7 °C 14.3 °C 1016.3 hPa Calm   3.2 km/h 63% 0.0 mm 262 W/m2
16:36 21.7 °C 14.1 °C 1016.3 hPa Calm   4.8 km/h 62% 0.0 mm 178 W/m2
16:41 21.8 °C 14.2 °C 1016.3 hPa Calm   3.2 km/h 62% 0.0 mm 163 W/m2
16:46 21.9 °C 14.8 °C 1016.3 hPa Calm   4.8 km/h 64% 0.0 mm 165 W/m2
16:51 21.9 °C 15 °C 1016.3 hPa Calm   1.6 km/h 65% 0.0 mm 185 W/m2
16:56 21.9 °C 15.5 °C 1016.3 hPa WNW 1.4 km/h 3.2 km/h 67% 0.0 mm 202 W/m2
17:01 22 °C 15.1 °C 1016.3 hPa West 9.7 km/h 9.7 km/h 65% 0.0 mm 295 W/m2
17:06 22 °C 14.4 °C 1016.3 hPa West 3.2 km/h 11.3 km/h 62% 0.0 mm 244 W/m2
17:11 21.9 °C 14.5 °C 1016.3 hPa West 3.2 km/h 6.4 km/h 63% 0.0 mm 158 W/m2
17:16 21.7 °C 14.3 °C 1016.3 hPa WSW 4.7 km/h 6.4 km/h 63% 0.0 mm 155 W/m2
17:21 21.7 °C 14.3 °C 1016.3 hPa WSW 3.2 km/h 6.4 km/h 63% 0.0 mm 369 W/m2
17:26 21.9 °C 14.8 °C 1016.3 hPa NW 6.4 km/h 11.3 km/h 64% 0.0 mm 353 W/m2
17:31 22.1 °C 14.2 °C 1016.3 hPa NW 4.7 km/h 6.4 km/h 61% 0.0 mm 206 W/m2
17:36 22.2 °C 14.1 °C 1016.3 hPa West 3.2 km/h 11.3 km/h 60% 0.0 mm 146 W/m2
17:41 22.2 °C 14.1 °C 1016.3 hPa WNW 4.7 km/h 9.7 km/h 60% 0.0 mm 204 W/m2
17:47 22.1 °C 14.2 °C 1016.3 hPa WSW 6.4 km/h 8 km/h 61% 0.0 mm 199 W/m2
17:52 21.9 °C 14 °C 1016.3 hPa NW 6.4 km/h 6.4 km/h 61% 0.0 mm 199 W/m2
17:57 21.9 °C 13.8 °C 1016.3 hPa West 3.2 km/h 6.4 km/h 60% 0.0 mm 174 W/m2
18:02 21.9 °C 13.5 °C 1016.3 hPa WNW 1.4 km/h 8 km/h 59% 0.0 mm 148 W/m2
18:07 21.9 °C 13.3 °C 1015.9 hPa WNW 1.4 km/h 8 km/h 58% 0.0 mm 155 W/m2
18:12 21.9 °C 13.5 °C 1015.9 hPa NW 1.4 km/h 3.2 km/h 59% 0.0 mm 158 W/m2
18:17 21.9 °C 14.3 °C 1015.9 hPa WSW 1.4 km/h 6.4 km/h 62% 0.0 mm 151 W/m2
18:22 21.7 °C 14.6 °C 1015.9 hPa West 3.2 km/h 4.8 km/h 64% 0.0 mm 163 W/m2
18:27 21.5 °C 14.2 °C 1015.9 hPa West 3.2 km/h 6.4 km/h 63% 0.0 mm 142 W/m2
18:32 21.3 °C 14 °C 1015.9 hPa WSW 3.2 km/h 6.4 km/h 63% 0.0 mm 107 W/m2
18:37 21.1 °C 14.3 °C 1015.9 hPa SSW 3.2 km/h 8 km/h 65% 0.0 mm 74 W/m2
18:42 20.8 °C 14.2 °C 1015.9 hPa WSW 3.2 km/h 3.2 km/h 66% 0.0 mm 67 W/m2
18:47 20.6 °C 14.5 °C 1015.9 hPa WSW 4.7 km/h 9.7 km/h 68% 0.0 mm 86 W/m2
18:52 20.6 °C 14.3 °C 1015.9 hPa WSW 4.7 km/h 9.7 km/h 67% 0.0 mm 79 W/m2
18:57 20.6 °C 14.3 °C 1015.9 hPa WNW 3.2 km/h 11.3 km/h 67% 0.0 mm 62 W/m2
19:02 20.6 °C 14.3 °C 1015.9 hPa WSW 3.2 km/h 6.4 km/h 67% 0.0 mm 47 W/m2
19:07 20.4 °C 14.3 °C 1015.9 hPa West 3.2 km/h 11.3 km/h 68% 0.0 mm 40 W/m2
19:12 20.2 °C 14.6 °C 1015.9 hPa WSW 3.2 km/h 3.2 km/h 70% 0.0 mm 35 W/m2
19:17 19.9 °C 14.3 °C 1015.9 hPa WSW 3.2 km/h 4.8 km/h 70% 0.0 mm 32 W/m2
19:22 19.7 °C 14.3 °C 1015.9 hPa WSW 3.2 km/h 4.8 km/h 71% 0.0 mm 28 W/m2
19:27 19.6 °C 14.2 °C 1015.9 hPa WSW 4.7 km/h 6.4 km/h 71% 0.0 mm 26 W/m2
19:32 19.4 °C 14.2 °C 1015.9 hPa Calm   1.6 km/h 72% 0.0 mm 23 W/m2
19:37 19.3 °C 14.3 °C 1016.3 hPa WSW 1.4 km/h 6.4 km/h 73% 0.0 mm 19 W/m2
19:42 19.2 °C 14.5 °C 1016.3 hPa Calm   1.6 km/h 74% 0.0 mm 16 W/m2
19:47 18.9 °C 14.4 °C 1016.3 hPa Calm   1.6 km/h 75% 0.0 mm 12 W/m2
19:52 18.7 °C 14.4 °C 1016.3 hPa WSW 3.2 km/h 3.2 km/h 76% 0.0 mm 5 W/m2
19:57 18.6 °C 14.3 °C 1016.3 hPa WSW 3.2 km/h 3.2 km/h 76% 0.0 mm 0 W/m2
20:02 18.3 °C 14.2 °C 1016.3 hPa WSW 1.4 km/h 3.2 km/h 77% 0.0 mm 0 W/m2
20:07 18.2 °C 14.3 °C 1016.3 hPa WSW 1.4 km/h 3.2 km/h 78% 0.0 mm 0 W/m2
20:12 18 °C 14.1 °C 1016.3 hPa Calm   1.6 km/h 78% 0.0 mm 0 W/m2
20:17 17.8 °C 13.9 °C 1016.3 hPa Calm     78% 0.0 mm 0 W/m2
20:22 17.7 °C 14 °C 1016.3 hPa Calm     79% 0.0 mm 0 W/m2
20:27 17.6 °C 14.1 °C 1016.3 hPa Calm   3.2 km/h 80% 0.0 mm 0 W/m2
20:32 17.4 °C 13.9 °C 1016.6 hPa WSW 1.4 km/h 1.6 km/h 80% 0.0 mm 0 W/m2
20:37 17.3 °C 14 °C 1016.6 hPa Calm   3.2 km/h 81% 0.0 mm 0 W/m2
20:42 17.1 °C 13.8 °C 1016.6 hPa Calm   1.6 km/h 81% 0.0 mm 0 W/m2
20:47 17 °C 13.9 °C 1016.6 hPa Calm     82% 0.0 mm 0 W/m2
20:52 16.8 °C 13.7 °C 1016.6 hPa Calm     82% 0.0 mm 0 W/m2
20:57 16.7 °C 13.8 °C 1016.6 hPa Calm     83% 0.0 mm 0 W/m2
21:02 16.7 °C 13.8 °C 1016.6 hPa Calm     83% 0.0 mm 0 W/m2
21:07 16.6 °C 13.7 °C 1016.6 hPa Calm     83% 0.0 mm 0 W/m2
21:12 16.4 °C 13.5 °C 1016.6 hPa Calm     83% 0.0 mm 0 W/m2
21:17 16.3 °C 13.6 °C 1016.6 hPa Calm     84% 0.0 mm 0 W/m2
21:22 16.3 °C 13.6 °C 1016.6 hPa Calm     84% 0.0 mm 0 W/m2
21:27 16.2 °C 13.5 °C 1016.9 hPa Calm     84% 0.0 mm 0 W/m2
21:32 16.2 °C 13.3 °C 1016.9 hPa WSW 1.4 km/h 1.6 km/h 83% 0.0 mm 0 W/m2
21:37 16.2 °C 13.3 °C 1016.9 hPa Calm     83% 0.0 mm 0 W/m2
21:42 16.2 °C 13.3 °C 1016.9 hPa Calm     83% 0.0 mm 0 W/m2
21:47 16.1 °C 13.4 °C 1016.9 hPa Calm     84% 0.0 mm 0 W/m2
21:52 16.1 °C 13.4 °C 1016.9 hPa Calm     84% 0.0 mm 0 W/m2
21:57 15.9 °C 13.2 °C 1016.9 hPa Calm     84% 0.0 mm 0 W/m2
22:02 15.9 °C 13.2 °C 1016.9 hPa Calm     84% 0.0 mm 0 W/m2
22:07 15.8 °C 13.1 °C 1016.9 hPa Calm   1.6 km/h 84% 0.0 mm 0 W/m2
22:12 15.7 °C 13 °C 1016.9 hPa Calm     84% 0.0 mm 0 W/m2
22:17 15.7 °C 13.2 °C 1016.9 hPa Calm   1.6 km/h 85% 0.0 mm 0 W/m2
22:22 15.6 °C 13.1 °C 1016.9 hPa Calm     85% 0.0 mm 0 W/m2
22:27 15.5 °C 13 °C 1016.9 hPa Calm     85% 0.0 mm 0 W/m2
22:32 15.4 °C 13.1 °C 1016.9 hPa Calm     86% 0.0 mm 0 W/m2
22:37 15.3 °C 13 °C 1016.9 hPa Calm     86% 0.0 mm 0 W/m2
22:42 15.2 °C 12.9 °C 1016.9 hPa Calm     86% 0.0 mm 0 W/m2
22:47 15.1 °C 12.8 °C 1016.9 hPa Calm     86% 0.0 mm 0 W/m2
22:52 15 °C 12.9 °C 1016.9 hPa Calm     87% 0.0 mm 0 W/m2
22:57 14.9 °C 12.8 °C 1016.9 hPa Calm     87% 0.0 mm 0 W/m2
23:02 14.9 °C 12.6 °C 1016.9 hPa Calm     86% 0.0 mm 0 W/m2
23:07 14.8 °C 12.5 °C 1016.9 hPa Calm     86% 0.0 mm 0 W/m2
23:12 14.7 °C 12.4 °C 1016.9 hPa Calm     86% 0.0 mm 0 W/m2
23:17 14.7 °C 12.6 °C 1016.9 hPa Calm     87% 0.0 mm 0 W/m2
23:22 14.6 °C 12.5 °C 1016.9 hPa Calm     87% 0.0 mm 0 W/m2
23:27 14.5 °C 12.5 °C 1016.9 hPa Calm   1.6 km/h 88% 0.0 mm 0 W/m2
23:32 14.5 °C 12.5 °C 1016.9 hPa Calm     88% 0.0 mm 0 W/m2
23:37 14.4 °C 12.4 °C 1016.9 hPa Calm   3.2 km/h 88% 0.0 mm 0 W/m2
23:42 14.4 °C 12.4 °C 1016.9 hPa Calm     88% 0.0 mm 0 W/m2
23:47 14.3 °C 12.3 °C 1016.9 hPa Calm     88% 0.0 mm 0 W/m2
23:52 14.3 °C 12.3 °C 1017.3 hPa Calm     88% 0.0 mm 0 W/m2
23:58 14.2 °C 12.2 °C 1017.3 hPa Calm   1.6 km/h 88% 0.0 mm 0 W/m2
Juneau County Weather
Compliments of Weather Underground - 4 mb